Time;durP1;ratioP1;P1;durP2;ratioP2;P2;SDS_P1;SDS_P2;PMS_P1;PMS_P2;Temp;Humidity;BMP_temperature;BMP_pressure;BME280_temperature;BME280_humidity;BME280_pressure;Samples;Min_cycle;Max_cycle;Signal;HPM_P1;HPM_P2
2021/09/09 00:02:05;;;;;;;;;;;;;;;14.92;75.84;99463.38;4973706;28;19978;-83
2021/09/09 00:04:32;;;;;;;;;;;;;;;14.92;75.75;99455.13;4973608;28;19930;-84
2021/09/09 00:06:58;;;;;;;;;;;;;;;14.96;75.77;99456.03;4940578;28;19926;-84
2021/09/09 00:09:24;;;;;;;;;;;;;;;14.95;75.38;99462.69;4973634;28;19926;-84
2021/09/09 00:11:50;;;;;;;;;;;;;;;14.94;75.69;99452.84;4973621;28;19925;-83
2021/09/09 00:14:17;;;;;;;;;;;;;;;14.95;75.54;99452.50;4973713;28;19926;-85
2021/09/09 00:16:44;;;;;;;;;;;;;;;14.96;75.55;99456.84;4956373;28;20418;-84
2021/09/09 00:19:11;;;;;;;;;;;;;;;15.00;75.58;99451.50;4956203;28;19980;-84
2021/09/09 00:21:37;;;;;;;;;;;;;;;15.00;75.55;99452.28;4973441;28;20392;-83
2021/09/09 00:24:09;;;;;;;;;;;;;;;15.01;75.69;99444.84;4973451;28;20021;-88
2021/09/09 00:26:36;;;;;;;;;;;;;;;14.99;75.59;99453.41;4973365;28;19932;-84
2021/09/09 00:29:02;;;;;;;;;;;;;;;14.99;75.64;99436.91;4956100;28;19934;-84
2021/09/09 00:31:28;;;;;;;;;;;;;;;15.01;75.55;99444.84;4973403;28;19926;-86
2021/09/09 00:33:54;;;;;;;;;;;;;;;15.00;75.36;99440.47;4973363;28;19926;-85
2021/09/09 00:36:36;;;;;;;;;;;;;;;15.02;74.95;99447.22;4973304;28;20526;-84
2021/09/09 00:39:02;;;;;;;;;;;;;;;15.05;75.39;99448.50;4973293;28;20028;-85
2021/09/09 00:41:30;;;;;;;;;;;;;;;15.03;74.85;99459.03;4973094;28;20387;-83
2021/09/09 00:43:58;;;;;;;;;;;;;;;15.05;74.90;99451.25;4955952;28;19933;-85
2021/09/09 00:46:24;;;;;;;;;;;;;;;15.02;75.03;99430.72;4973153;28;20383;-85
2021/09/09 00:48:51;;;;;;;;;;;;;;;15.05;74.84;99440.25;4955831;28;19948;-84
2021/09/09 00:51:17;;;;;;;;;;;;;;;15.06;74.83;99435.53;4973146;28;19926;-85
2021/09/09 00:53:43;;;;;;;;;;;;;;;15.05;74.34;99443.00;4975800;28;19933;-84
2021/09/09 00:56:10;;;;;;;;;;;;;;;15.08;74.29;99434.06;4977201;28;20347;-84
2021/09/09 00:58:36;;;;;;;;;;;;;;;15.10;74.08;99430.97;4959795;28;19926;-84
2021/09/09 01:01:02;;;;;;;;;;;;;;;15.06;74.14;99441.84;4976985;28;19980;-85
2021/09/09 01:03:29;;;;;;;;;;;;;;;15.08;74.21;99436.03;4943805;28;19954;-85
2021/09/09 01:05:55;;;;;;;;;;;;;;;15.07;74.29;99432.47;4976985;28;20028;-85
2021/09/09 01:08:20;;;;;;;;;;;;;;;15.06;73.94;99430.84;4976932;28;19984;-85
2021/09/09 01:10:46;;;;;;;;;;;;;;;15.04;73.95;99428.44;4976932;28;19926;-84
2021/09/09 01:13:14;;;;;;;;;;;;;;;15.00;74.07;99433.03;4976805;28;19930;-84
2021/09/09 01:15:43;;;;;;;;;;;;;;;14.98;74.19;99412.47;4977023;28;20380;-85
2021/09/09 01:18:10;;;;;;;;;;;;;;;14.95;74.10;99424.16;4977112;28;19930;-84
2021/09/09 01:20:36;;;;;;;;;;;;;;;14.96;74.02;99415.56;4976679;28;20017;-85
2021/09/09 01:23:01;;;;;;;;;;;;;;;14.93;74.22;99413.50;4976613;28;20040;-84
2021/09/09 01:25:27;;;;;;;;;;;;;;;14.92;74.27;99414.63;4976525;28;19926;-84
2021/09/09 01:27:54;;;;;;;;;;;;;;;14.90;74.29;99424.34;4976485;28;20406;-84
2021/09/09 01:30:20;;;;;;;;;;;;;;;14.88;74.68;99418.41;4959328;28;20020;-84
2021/09/09 01:32:46;;;;;;;;;;;;;;;14.90;74.57;99416.09;4959466;28;20442;-84
2021/09/09 01:35:12;;;;;;;;;;;;;;;14.83;74.70;99413.91;4976439;28;19925;-84
2021/09/09 01:37:39;;;;;;;;;;;;;;;14.81;74.90;99421.72;4976349;28;20315;-84
2021/09/09 01:40:05;;;;;;;;;;;;;;;14.80;74.86;99415.41;4976315;28;19926;-84
2021/09/09 01:42:31;;;;;;;;;;;;;;;14.83;74.88;99421.38;4976223;28;20384;-84
2021/09/09 01:44:57;;;;;;;;;;;;;;;14.80;74.68;99415.41;4958880;28;19952;-85
2021/09/09 01:47:23;;;;;;;;;;;;;;;14.84;74.62;99415.53;4976178;28;20012;-84
2021/09/09 01:49:48;;;;;;;;;;;;;;;14.89;74.43;99422.75;4955470;29;19926;-85
2021/09/09 01:52:14;;;;;;;;;;;;;;;14.86;74.18;99412.44;4956802;28;19926;-84
2021/09/09 01:54:40;;;;;;;;;;;;;;;14.85;74.37;99413.59;4956808;29;20006;-84
2021/09/09 01:57:07;;;;;;;;;;;;;;;14.85;74.05;99414.38;4956842;28;20024;-84
2021/09/09 01:59:33;;;;;;;;;;;;;;;14.85;74.20;99410.81;4956676;29;19973;-84
2021/09/09 02:02:02;;;;;;;;;;;;;;;14.82;74.15;99406.00;4956646;28;19978;-83
2021/09/09 02:04:29;;;;;;;;;;;;;;;14.81;74.17;99402.44;4956200;28;19973;-83
2021/09/09 02:06:56;;;;;;;;;;;;;;;14.81;74.22;99394.19;4955342;29;19934;-84
2021/09/09 02:09:22;;;;;;;;;;;;;;;14.81;74.17;99396.94;4956765;29;19930;-83
2021/09/09 02:11:48;;;;;;;;;;;;;;;14.80;74.18;99390.63;4956434;28;19930;-84
2021/09/09 02:14:13;;;;;;;;;;;;;;;14.82;74.27;99395.00;4955273;29;19978;-84
2021/09/09 02:16:40;;;;;;;;;;;;;;;14.80;74.43;99401.66;4956432;29;19948;-84
2021/09/09 02:19:06;;;;;;;;;;;;;;;14.85;74.44;99400.63;4956361;29;20383;-84
2021/09/09 02:21:33;;;;;;;;;;;;;;;14.84;74.34;99399.03;4956274;29;19973;-84
2021/09/09 02:23:59;;;;;;;;;;;;;;;14.88;74.17;99396.38;4956510;28;20021;-87
2021/09/09 02:26:25;;;;;;;;;;;;;;;14.86;74.34;99402.22;4956283;28;19933;-84
2021/09/09 02:28:51;;;;;;;;;;;;;;;14.87;74.14;99401.09;4956186;29;19926;-84
2021/09/09 02:31:18;;;;;;;;;;;;;;;14.86;74.16;99387.66;4956197;28;19978;-84
2021/09/09 02:33:44;;;;;;;;;;;;;;;14.86;74.38;99388.47;4956380;29;19962;-88
2021/09/09 02:36:10;;;;;;;;;;;;;;;14.82;74.11;99400.50;4956106;28;19926;-84
2021/09/09 02:38:36;;;;;;;;;;;;;;;14.89;74.14;99398.00;4955973;29;20446;-84
2021/09/09 02:41:03;;;;;;;;;;;;;;;14.95;74.18;99393.88;4955883;28;20024;-84
2021/09/09 02:43:28;;;;;;;;;;;;;;;14.95;74.02;99396.63;4970663;28;20450;-84
2021/09/09 02:45:55;;;;;;;;;;;;;;;14.90;74.15;99388.59;4955681;29;19926;-84
2021/09/09 02:48:20;;;;;;;;;;;;;;;14.89;74.19;99403.50;4956401;28;20335;-83
2021/09/09 02:50:48;;;;;;;;;;;;;;;14.87;74.24;99397.53;4957770;28;19926;-84
2021/09/09 02:53:14;;;;;;;;;;;;;;;14.88;74.01;99396.38;4975064;28;20503;-84
2021/09/09 02:55:40;;;;;;;;;;;;;;;14.85;74.00;99395.13;4975034;28;20008;-84
2021/09/09 02:58:06;;;;;;;;;;;;;;;14.87;74.13;99403.06;4957646;28;19973;-84
2021/09/09 03:00:32;;;;;;;;;;;;;;;14.86;74.14;99395.91;4974899;28;19929;-83
2021/09/09 03:02:58;;;;;;;;;;;;;;;14.82;74.00;99395.78;4974747;28;20412;-83
2021/09/09 03:05:26;;;;;;;;;;;;;;;14.87;73.88;99397.53;4974814;28;20380;-84
2021/09/09 03:07:51;;;;;;;;;;;;;;;14.88;73.61;99397.19;4973616;28;20016;-83
2021/09/09 03:10:17;;;;;;;;;;;;;;;14.93;73.62;99401.66;4974620;28;19929;-83
2021/09/09 03:12:43;;;;;;;;;;;;;;;14.94;73.70;99400.53;4941469;28;20032;-84
2021/09/09 03:15:09;;;;;;;;;;;;;;;14.96;73.62;99388.03;4973774;28;19968;-84
2021/09/09 03:17:35;;;;;;;;;;;;;;;14.97;73.48;99391.59;4974642;28;19965;-83
2021/09/09 03:20:03;;;;;;;;;;;;;;;14.96;73.39;99388.03;4974523;28;20466;-83
2021/09/09 03:22:29;;;;;;;;;;;;;;;14.97;73.44;99392.41;4974339;28;19932;-84
2021/09/09 03:24:57;;;;;;;;;;;;;;;14.98;73.45;99398.72;4974471;28;19926;-84
2021/09/09 03:27:23;;;;;;;;;;;;;;;15.03;73.61;99398.47;4973193;28;19922;-84
2021/09/09 03:29:52;;;;;;;;;;;;;;;15.10;73.48;99411.69;4957498;28;19934;-87
2021/09/09 03:32:17;;;;;;;;;;;;;;;15.09;73.21;99413.63;4974333;28;19981;-86
2021/09/09 03:34:44;;;;;;;;;;;;;;;15.05;73.42;99404.47;4955512;28;19970;-90
2021/09/09 03:37:10;;;;;;;;;;;;;;;15.11;73.39;99408.59;4942586;28;20339;-84
2021/09/09 03:39:35;;;;;;;;;;;;;;;15.08;72.94;99409.28;4961830;28;19981;-83
2021/09/09 03:42:01;;;;;;;;;;;;;;;15.11;72.84;99411.34;4954735;29;19953;-84
2021/09/09 03:44:30;;;;;;;;;;;;;;;15.14;73.09;99413.44;4972730;28;19926;-84
2021/09/09 03:46:56;;;;;;;;;;;;;;;15.14;72.86;99415.38;4962770;28;19922;-88
2021/09/09 03:49:22;;;;;;;;;;;;;;;15.12;72.70;99409.41;4964323;28;19934;-85
2021/09/09 03:51:47;;;;;;;;;;;;;;;15.13;72.63;99411.00;4948208;28;20031;-84
2021/09/09 03:54:13;;;;;;;;;;;;;;;15.12;72.93;99412.16;4974007;28;20352;-87
2021/09/09 03:56:39;;;;;;;;;;;;;;;15.12;72.74;99415.72;4973424;28;19926;-89
2021/09/09 03:59:05;;;;;;;;;;;;;;;15.10;72.62;99411.69;4956634;28;19930;-86
2021/09/09 04:01:31;;;;;;;;;;;;;;;15.11;72.69;99419.63;4956032;28;20391;-84
2021/09/09 04:04:01;;;;;;;;;;;;;;;15.15;72.69;99422.50;4955632;28;20214;-84
2021/09/09 04:06:28;;;;;;;;;;;;;;;15.16;72.53;99424.91;4973872;28;19926;-84
2021/09/09 04:08:54;;;;;;;;;;;;;;;15.19;72.31;99431.69;4973229;28;19932;-85
2021/09/09 04:11:20;;;;;;;;;;;;;;;15.23;72.33;99436.19;4973043;28;19926;-88
2021/09/09 04:13:46;;;;;;;;;;;;;;;15.23;72.19;99430.69;4973459;28;19926;-84
2021/09/09 04:16:11;;;;;;;;;;;;;;;15.22;72.35;99429.03;4973801;28;20410;-86
2021/09/09 04:18:37;;;;;;;;;;;;;;;15.23;72.37;99435.34;4973166;28;20010;-87
2021/09/09 04:21:03;;;;;;;;;;;;;;;15.26;72.44;99432.75;4973419;28;19930;-88
2021/09/09 04:23:30;;;;;;;;;;;;;;;15.25;72.14;99436.63;4959784;28;20406;-92
2021/09/09 04:25:55;;;;;;;;;;;;;;;15.31;72.39;99430.91;4974013;28;20029;-91
2021/09/09 04:28:22;;;;;;;;;;;;;;;15.28;72.43;99440.66;4974458;28;19930;-91
2021/09/09 04:30:48;;;;;;;;;;;;;;;15.28;72.25;99438.69;4973988;28;19926;-86
2021/09/09 04:33:15;;;;;;;;;;;;;;;15.30;72.34;99440.28;4959691;28;19925;-93
2021/09/09 04:35:48;;;;;;;;;;;;;;;15.35;72.08;99445.59;4946462;28;19926;-93
2021/09/09 04:38:14;;;;;;;;;;;;;;;15.39;72.13;99449.28;4975534;28;20065;-91
2021/09/09 04:40:40;;;;;;;;;;;;;;;15.41;72.15;99452.50;4974613;28;19985;-91
2021/09/09 04:43:06;;;;;;;;;;;;;;;15.44;72.10;99447.09;4940051;29;19933;-91
2021/09/09 04:45:32;;;;;;;;;;;;;;;15.45;72.03;99453.41;4933266;29;19931;-91
2021/09/09 04:47:58;;;;;;;;;;;;;;;15.44;71.73;99447.09;4953440;29;20271;-89
2021/09/09 04:50:27;;;;;;;;;;;;;;;15.49;72.07;99457.09;4961579;28;20025;-89
2021/09/09 04:52:53;;;;;;;;;;;;;;;15.49;72.04;99457.09;4953385;29;20017;-90
2021/09/09 04:55:19;;;;;;;;;;;;;;;15.50;71.66;99448.50;4921735;29;19926;-88
2021/09/09 04:57:47;;;;;;;;;;;;;;;15.54;71.75;99445.06;4953897;29;19927;-88
2021/09/09 05:00:13;;;;;;;;;;;;;;;15.53;71.84;99444.25;4952160;28;19949;-82
2021/09/09 05:02:39;;;;;;;;;;;;;;;15.54;71.61;99443.09;4972849;28;19926;-89
2021/09/09 05:05:05;;;;;;;;;;;;;;;15.56;71.74;99453.78;4938962;28;20033;-89
2021/09/09 05:07:31;;;;;;;;;;;;;;;15.49;71.72;99438.59;4939825;28;19933;-90
2021/09/09 05:10:01;;;;;;;;;;;;;;;15.52;72.01;99440.69;4939546;28;19926;-89
2021/09/09 05:12:27;;;;;;;;;;;;;;;15.58;71.90;99438.50;4972668;28;20395;-89
2021/09/09 05:14:53;;;;;;;;;;;;;;;15.58;71.76;99435.75;4955390;28;19926;-89
2021/09/09 05:17:21;;;;;;;;;;;;;;;15.60;71.86;99430.72;4955263;28;20358;-89
2021/09/09 05:19:46;;;;;;;;;;;;;;;15.58;71.71;99430.25;4955699;28;19926;-89
2021/09/09 05:22:14;;;;;;;;;;;;;;;15.59;71.83;99434.59;4973359;28;19926;-90
2021/09/09 05:24:40;;;;;;;;;;;;;;;15.62;71.55;99439.44;4955414;28;19926;-90
2021/09/09 05:27:06;;;;;;;;;;;;;;;15.62;71.66;99442.19;4940660;28;19933;-90
2021/09/09 05:29:31;;;;;;;;;;;;;;;15.60;71.61;99438.19;4973537;28;19993;-89
2021/09/09 05:31:57;;;;;;;;;;;;;;;15.60;72.03;99438.19;4924170;28;19926;-90
2021/09/09 05:34:23;;;;;;;;;;;;;;;15.62;71.76;99450.44;4955727;28;19969;-89
2021/09/09 05:36:50;;;;;;;;;;;;;;;15.62;71.89;99436.66;4955310;28;19926;-90
2021/09/09 05:39:16;;;;;;;;;;;;;;;15.65;71.85;99435.97;4974953;28;20029;-89
2021/09/09 05:41:42;;;;;;;;;;;;;;;15.67;71.71;99438.44;4959036;28;19985;-89
2021/09/09 05:44:08;;;;;;;;;;;;;;;15.71;71.59;99448.44;4942833;28;19930;-90
2021/09/09 05:46:35;;;;;;;;;;;;;;;15.70;71.74;99452.34;4943375;28;19934;-90
2021/09/09 05:49:00;;;;;;;;;;;;;;;15.75;71.65;99448.53;4958840;28;19926;-91
2021/09/09 05:51:26;;;;;;;;;;;;;;;15.80;71.42;99447.53;4942900;28;19937;-90
2021/09/09 05:53:52;;;;;;;;;;;;;;;15.78;71.24;99450.59;4943458;28;19930;-89
2021/09/09 05:56:18;;;;;;;;;;;;;;;15.83;71.36;99449.59;4958752;28;20148;-90
2021/09/09 05:58:44;;;;;;;;;;;;;;;15.89;71.43;99443.50;4958956;28;20018;-91
2021/09/09 06:01:10;;;;;;;;;;;;;;;15.92;71.00;99434.50;4975937;28;19926;-90
2021/09/09 06:03:36;;;;;;;;;;;;;;;16.01;70.90;99447.41;4958605;28;19930;-90
2021/09/09 06:06:05;;;;;;;;;;;;;;;16.07;70.75;99440.50;4975873;28;19969;-91
2021/09/09 06:08:31;;;;;;;;;;;;;;;16.08;70.56;99442.09;4958718;28;20047;-90
2021/09/09 06:10:58;;;;;;;;;;;;;;;16.15;70.68;99445.06;4958431;28;20315;-90
2021/09/09 06:13:24;;;;;;;;;;;;;;;16.19;70.39;99446.81;4958650;28;19926;-90
2021/09/09 06:15:50;;;;;;;;;;;;;;;16.27;70.63;99444.25;4958910;28;20288;-90
2021/09/09 06:18:16;;;;;;;;;;;;;;;16.29;70.50;99434.50;4959063;28;19933;-90
2021/09/09 06:20:42;;;;;;;;;;;;;;;16.36;70.33;99444.94;4974663;28;20468;-91
2021/09/09 06:23:07;;;;;;;;;;;;;;;16.34;70.47;99445.28;4959417;28;19926;-90
2021/09/09 06:25:34;;;;;;;;;;;;;;;16.32;70.84;99435.72;4958913;28;19926;-90
2021/09/09 06:28:00;;;;;;;;;;;;;;;16.30;71.12;99443.56;4958861;28;19957;-90
2021/09/09 06:30:27;;;;;;;;;;;;;;;16.30;71.23;99452.63;4977760;28;19906;-91
2021/09/09 06:32:53;;;;;;;;;;;;;;;16.36;71.32;99448.50;4927645;28;19955;-89
2021/09/09 06:35:20;;;;;;;;;;;;;;;16.43;70.84;99439.63;4948064;28;19989;-90
2021/09/09 06:37:47;;;;;;;;;;;;;;;16.47;70.24;99442.50;4943434;28;20392;-90
2021/09/09 06:40:13;;;;;;;;;;;;;;;16.50;70.52;99441.78;4959680;28;19926;-89
2021/09/09 06:42:40;;;;;;;;;;;;;;;16.66;70.42;99439.91;4975680;28;19980;-90
2021/09/09 06:45:08;;;;;;;;;;;;;;;16.77;69.65;99446.56;4928786;28;19926;-88
2021/09/09 06:47:33;;;;;;;;;;;;;;;16.84;69.49;99437.66;4942248;28;19926;-88
2021/09/09 06:50:03;;;;;;;;;;;;;;;16.89;69.52;99438.22;4953506;28;19930;-91
2021/09/09 06:52:28;;;;;;;;;;;;;;;16.86;68.95;99454.69;4954765;29;20038;-90
2021/09/09 06:54:55;;;;;;;;;;;;;;;16.86;69.38;99452.72;4956061;29;19926;-92
2021/09/09 06:57:24;;;;;;;;;;;;;;;16.87;69.32;99454.31;4939000;29;19985;-91
2021/09/09 06:59:50;;;;;;;;;;;;;;;16.83;69.31;99460.91;4954925;29;19927;-91
2021/09/09 07:02:16;;;;;;;;;;;;;;;16.99;69.38;99452.69;4954556;29;20293;-91
2021/09/09 07:04:42;;;;;;;;;;;;;;;16.96;69.00;99462.47;4954425;29;20387;-90
2021/09/09 07:07:08;;;;;;;;;;;;;;;16.98;68.82;99460.13;4955969;29;20024;-90
2021/09/09 07:09:41;;;;;;;;;;;;;;;17.05;68.57;99456.78;4954846;29;19930;-92
2021/09/09 07:12:08;;;;;;;;;;;;;;;17.08;68.85;99469.88;4954565;29;19981;-91
2021/09/09 07:14:34;;;;;;;;;;;;;;;17.22;68.64;99472.22;4954291;29;19922;-91
2021/09/09 07:17:00;;;;;;;;;;;;;;;17.24;67.94;99472.69;4922686;29;19976;-88
2021/09/09 07:19:27;;;;;;;;;;;;;;;17.35;68.06;99485.66;4954499;29;19966;-95
2021/09/09 07:21:55;;;;;;;;;;;;;;;17.32;67.72;99480.81;4956707;29;19927;-92
2021/09/09 07:24:22;;;;;;;;;;;;;;;17.37;68.32;99479.75;4946266;28;19986;-91
2021/09/09 07:26:48;;;;;;;;;;;;;;;17.35;67.95;99477.34;4955013;29;19922;-90
2021/09/09 07:29:17;;;;;;;;;;;;;;;17.27;68.05;99483.03;4958170;29;19965;-92
2021/09/09 07:31:44;;;;;;;;;;;;;;;17.23;68.54;99482.94;4939283;29;19926;-83
2021/09/09 07:34:11;;;;;;;;;;;;;;;17.34;68.89;99478.50;4954702;29;19977;-82
2021/09/09 07:36:37;;;;;;;;;;;;;;;17.45;67.97;99486.25;4955055;29;19995;-87
2021/09/09 07:39:03;;;;;;;;;;;;;;;17.50;68.25;99486.00;4954680;29;20091;-86
2021/09/09 07:41:29;;;;;;;;;;;;;;;17.53;67.91;99477.81;4958133;29;20002;-91
2021/09/09 07:43:56;;;;;;;;;;;;;;;17.68;67.61;99490.03;4924655;29;19927;-90
2021/09/09 07:46:22;;;;;;;;;;;;;;;17.77;67.39;99478.81;4940614;29;20312;-89
2021/09/09 07:48:50;;;;;;;;;;;;;;;17.80;67.08;99475.34;4940988;29;19926;-90
2021/09/09 07:51:18;;;;;;;;;;;;;;;17.90;67.31;99474.81;4955451;28;19933;-90
2021/09/09 07:53:45;;;;;;;;;;;;;;;18.02;67.40;99476.69;4938675;29;20410;-90
2021/09/09 07:56:12;;;;;;;;;;;;;;;18.10;66.75;99483.97;4941027;29;19937;-90
2021/09/09 07:58:43;;;;;;;;;;;;;;;18.16;66.89;99481.75;4960018;29;19910;-91
2021/09/09 08:01:09;;;;;;;;;;;;;;;18.22;65.63;99486.63;4938685;29;20315;-91
2021/09/09 08:03:35;;;;;;;;;;;;;;;18.35;65.77;99476.25;4941503;29;20006;-91
2021/09/09 08:06:01;;;;;;;;;;;;;;;18.51;64.69;99470.69;4941544;29;19989;-91
2021/09/09 08:08:26;;;;;;;;;;;;;;;18.61;64.92;99477.59;4955955;29;20451;-90
2021/09/09 08:10:52;;;;;;;;;;;;;;;18.59;64.29;99472.44;4939051;29;20168;-92
2021/09/09 08:13:18;;;;;;;;;;;;;;;18.55;63.84;99474.31;4922730;29;19926;-92
2021/09/09 08:15:48;;;;;;;;;;;;;;;18.80;64.55;99469.31;4938197;29;19974;-84
2021/09/09 08:18:14;;;;;;;;;;;;;;;18.96;63.41;99472.81;4954380;29;19926;-88
2021/09/09 08:20:40;;;;;;;;;;;;;;;19.06;62.43;99476.97;4956230;28;19926;-89
2021/09/09 08:23:06;;;;;;;;;;;;;;;19.13;62.46;99468.00;4924573;29;19926;-94
2021/09/09 08:25:33;;;;;;;;;;;;;;;19.20;62.06;99470.91;4941337;29;19922;-93
2021/09/09 08:27:59;;;;;;;;;;;;;;;19.29;61.52;99479.00;4937744;29;20474;-88
2021/09/09 08:30:26;;;;;;;;;;;;;;;19.32;61.57;99478.25;4954283;28;19981;-88
2021/09/09 08:32:52;;;;;;;;;;;;;;;19.31;61.53;99479.44;4937109;29;19934;-84
2021/09/09 08:35:18;;;;;;;;;;;;;;;19.45;61.29;99471.38;4954558;28;19933;-91
2021/09/09 08:37:44;;;;;;;;;;;;;;;19.47;60.47;99471.81;4955674;29;20392;-90
2021/09/09 08:40:10;;;;;;;;;;;;;;;19.37;61.46;99472.38;4954117;29;19933;-91
2021/09/09 08:42:37;;;;;;;;;;;;;;;19.26;61.22;99472.19;4938470;29;20295;-91
2021/09/09 08:45:04;;;;;;;;;;;;;;;19.17;61.31;99469.69;4939267;29;19926;-92
2021/09/09 08:47:31;;;;;;;;;;;;;;;19.18;61.61;99481.56;4923502;29;19926;-87
2021/09/09 08:49:57;;;;;;;;;;;;;;;19.15;62.71;99472.00;4938046;29;19926;-89
2021/09/09 08:52:24;;;;;;;;;;;;;;;19.14;62.17;99475.97;4953287;29;20422;-90
2021/09/09 08:54:50;;;;;;;;;;;;;;;19.13;62.40;99479.06;4937156;29;19927;-89
2021/09/09 08:57:20;;;;;;;;;;;;;;;19.08;62.41;99479.38;4937092;29;19930;-93
2021/09/09 08:59:46;;;;;;;;;;;;;;;19.03;62.70;99480.47;4953411;28;19973;-92
2021/09/09 09:02:12;;;;;;;;;;;;;;;18.86;62.80;99489.22;4921582;29;19953;-93
2021/09/09 09:04:38;;;;;;;;;;;;;;;18.82;63.09;99489.16;4936936;29;19926;-91
2021/09/09 09:07:05;;;;;;;;;;;;;;;18.73;62.84;99494.91;4939598;29;19977;-90
2021/09/09 09:09:36;;;;;;;;;;;;;;;18.80;63.78;99502.56;4936645;29;20021;-87
2021/09/09 09:12:07;;;;;;;;;;;;;;;18.79;62.93;99500.97;4936926;29;20312;-87
2021/09/09 09:14:33;;;;;;;;;;;;;;;18.81;63.14;99506.94;4938852;29;20287;-87
2021/09/09 09:17:06;;;;;;;;;;;;;;;18.83;63.26;99492.72;4941264;29;20399;-88
2021/09/09 09:19:41;;;;;;;;;;;;;;;18.81;63.14;99492.28;4957383;28;20418;-89
2021/09/09 09:24:47;;;;;;;;;;;;;;;18.98;62.67;99491.88;4955979;28;19962;-87
2021/09/09 09:27:15;;;;;;;;;;;;;;;19.18;62.64;99492.66;4957201;29;19926;-88
2021/09/09 09:29:42;;;;;;;;;;;;;;;19.36;61.95;99499.31;4940057;29;19926;-88
2021/09/09 09:32:11;;;;;;;;;;;;;;;19.45;61.37;99504.63;4956480;28;19933;-88
2021/09/09 09:34:37;;;;;;;;;;;;;;;19.46;61.23;99495.94;4955998;29;19935;-87
2021/09/09 09:37:03;;;;;;;;;;;;;;;19.51;61.25;99499.59;4957194;28;20005;-86
2021/09/09 09:39:29;;;;;;;;;;;;;;;19.51;60.75;99491.28;4955928;29;19969;-90
2021/09/09 09:41:55;;;;;;;;;;;;;;;19.63;61.25;99491.09;4955701;29;19970;-87
2021/09/09 09:44:27;;;;;;;;;;;;;;;19.77;60.31;99485.00;4955810;29;19926;-87
2021/09/09 09:46:53;;;;;;;;;;;;;;;19.87;60.39;99489.97;4939675;29;19938;-87
2021/09/09 09:49:18;;;;;;;;;;;;;;;19.98;60.79;99490.13;4966446;28;19926;-88
2021/09/09 09:51:46;;;;;;;;;;;;;;;19.93;60.92;99489.28;4976243;28;19981;-87
2021/09/09 09:54:12;;;;;;;;;;;;;;;19.90;60.79;99490.00;4976200;28;19932;-87
2021/09/09 09:56:39;;;;;;;;;;;;;;;19.87;61.10;99490.75;4942710;28;20311;-87
2021/09/09 09:59:04;;;;;;;;;;;;;;;19.88;60.53;99486.81;4958588;28;19926;-88
2021/09/09 10:01:31;;;;;;;;;;;;;;;19.75;61.48;99490.94;4977097;28;20358;-90
2021/09/09 10:04:17;;;;;;;;;;;;;;;19.54;61.39;99498.88;4927732;28;20060;-86
2021/09/09 10:06:45;;;;;;;;;;;;;;;19.37;62.56;99503.72;4975855;28;19926;-88
2021/09/09 10:09:12;;;;;;;;;;;;;;;19.18;63.11;99492.66;4976455;28;19929;-91
2021/09/09 10:11:39;;;;;;;;;;;;;;;19.11;63.72;99506.38;4943327;28;20383;-93
2021/09/09 10:14:06;;;;;;;;;;;;;;;19.10;63.91;99500.00;4927276;28;19926;-89
2021/09/09 10:16:42;;;;;;;;;;;;;;;19.21;63.23;99495.50;4942412;28;20010;-86
2021/09/09 10:19:11;;;;;;;;;;;;;;;19.37;63.77;99498.16;4975904;28;20307;-85
2021/09/09 10:21:38;;;;;;;;;;;;;;;19.37;62.76;99503.72;4975831;28;20299;-85
2021/09/09 10:26:35;;;;;;;;;;;;;;;19.54;62.42;99505.22;4975521;28;19932;-85
2021/09/09 10:29:01;;;;;;;;;;;;;;;19.56;61.99;99504.81;4958143;28;19926;-85
2021/09/09 10:31:43;;;;;;;;;;;;;;;19.53;62.67;99511.91;4975111;28;19936;-87
2021/09/09 10:34:21;;;;;;;;;;;;;;;19.49;61.79;99516.59;4975659;28;19980;-87
2021/09/09 10:36:47;;;;;;;;;;;;;;;19.52;62.30;99504.75;4975327;28;19965;-85
2021/09/09 10:39:17;;;;;;;;;;;;;;;19.50;61.16;99507.09;4957865;28;19932;-87
2021/09/09 10:41:43;;;;;;;;;;;;;;;19.49;61.27;99506.28;4975187;28;19926;-86
2021/09/09 10:44:10;;;;;;;;;;;;;;;19.67;61.18;99511.41;4957856;28;19981;-85
2021/09/09 10:46:45;;;;;;;;;;;;;;;19.74;59.97;99503.22;4974850;28;20399;-88
2021/09/09 10:49:13;;;;;;;;;;;;;;;19.75;61.32;99509.56;4974946;28;20016;-84
2021/09/09 10:51:59;;;;;;;;;;;;;;;19.77;61.30;99513.56;4974933;28;20347;-86
2021/09/09 10:54:25;;;;;;;;;;;;;;;19.67;61.25;99511.41;4957452;28;19926;-84
2021/09/09 10:56:53;;;;;;;;;;;;;;;19.60;61.51;99508.47;4957605;28;19926;-84
2021/09/09 10:59:19;;;;;;;;;;;;;;;19.60;61.12;99512.06;4974714;28;19933;-84
2021/09/09 11:01:46;;;;;;;;;;;;;;;19.58;62.26;99514.38;4957517;28;20462;-84
2021/09/09 11:04:26;;;;;;;;;;;;;;;19.57;63.13;99520.28;4974921;28;19989;-84
2021/09/09 11:06:53;;;;;;;;;;;;;;;19.44;63.28;99528.78;4957568;28;20346;-85
2021/09/09 11:09:19;;;;;;;;;;;;;;;19.40;64.54;99530.69;4974753;28;20458;-84
2021/09/09 11:11:54;;;;;;;;;;;;;;;19.40;64.68;99527.09;4974707;28;20391;-85
2021/09/09 11:14:23;;;;;;;;;;;;;;;19.53;64.37;99524.97;4974744;28;19930;-84
2021/09/09 11:16:49;;;;;;;;;;;;;;;19.61;64.70;99532.28;4973460;28;19980;-85
2021/09/09 11:19:18;;;;;;;;;;;;;;;19.63;63.65;99527.97;4974504;28;19937;-84
2021/09/09 11:21:44;;;;;;;;;;;;;;;19.58;63.15;99528.25;4974615;28;19926;-85
2021/09/09 11:24:12;;;;;;;;;;;;;;;19.61;62.92;99526.72;4974550;28;20296;-85
2021/09/09 11:26:39;;;;;;;;;;;;;;;19.61;63.15;99524.75;4956818;28;19926;-84
2021/09/09 11:29:05;;;;;;;;;;;;;;;19.63;62.39;99518.81;4974284;28;20427;-84
2021/09/09 11:31:32;;;;;;;;;;;;;;;19.70;62.11;99521.75;4956997;28;19926;-85
2021/09/09 11:34:00;;;;;;;;;;;;;;;19.83;62.05;99520.38;4974270;28;19933;-84
2021/09/09 11:36:28;;;;;;;;;;;;;;;19.83;61.05;99523.16;4973587;28;19926;-84
2021/09/09 11:38:57;;;;;;;;;;;;;;;19.83;61.91;99527.91;4974575;28;19925;-84
2021/09/09 11:41:24;;;;;;;;;;;;;;;19.94;62.36;99520.59;4974336;28;19930;-84
2021/09/09 11:43:55;;;;;;;;;;;;;;;19.92;61.22;99520.94;4974160;28;20161;-85
2021/09/09 11:46:29;;;;;;;;;;;;;;;20.01;61.50;99526.25;4956900;28;19926;-87
2021/09/09 11:48:56;;;;;;;;;;;;;;;20.02;61.27;99530.63;4973834;28;19925;-84
2021/09/09 11:51:34;;;;;;;;;;;;;;;20.04;61.36;99530.28;4973961;28;19926;-84
2021/09/09 11:54:01;;;;;;;;;;;;;;;19.94;62.17;99528.91;4973728;28;19930;-85
2021/09/09 11:56:27;;;;;;;;;;;;;;;19.86;62.77;99529.94;4955823;28;19953;-85
2021/09/09 11:58:53;;;;;;;;;;;;;;;19.81;62.94;99539.41;4956648;28;20338;-83
2021/09/09 12:01:19;;;;;;;;;;;;;;;19.64;62.86;99537.09;4956574;28;19989;-87
2021/09/09 12:03:46;;;;;;;;;;;;;;;19.55;63.82;99528.19;4951312;28;19926;-84
2021/09/09 12:06:22;;;;;;;;;;;;;;;19.54;63.16;99532.94;4970068;28;19969;-89
2021/09/09 12:08:48;;;;;;;;;;;;;;;19.45;63.32;99530.38;4973539;28;20135;-85
2021/09/09 12:11:16;;;;;;;;;;;;;;;19.47;62.65;99530.84;4956453;28;20017;-85
2021/09/09 12:13:44;;;;;;;;;;;;;;;19.48;62.26;99532.44;4956438;28;19926;-87
2021/09/09 12:16:15;;;;;;;;;;;;;;;19.50;62.57;99532.03;4973179;28;19933;-86
2021/09/09 12:18:41;;;;;;;;;;;;;;;19.49;62.40;99542.34;4973640;28;19926;-88
2021/09/09 12:21:08;;;;;;;;;;;;;;;19.55;62.32;99530.97;4973343;28;20032;-88
2021/09/09 12:23:35;;;;;;;;;;;;;;;19.66;61.67;99534.75;4956337;28;19926;-85
2021/09/09 12:26:15;;;;;;;;;;;;;;;19.64;60.80;99537.09;4963668;28;19960;-86
2021/09/09 12:28:41;;;;;;;;;;;;;;;19.57;61.36;99534.97;4954862;28;19937;-90
2021/09/09 12:31:07;;;;;;;;;;;;;;;19.56;61.77;99538.91;4973494;28;20346;-85
2021/09/09 12:33:40;;;;;;;;;;;;;;;19.61;61.84;99538.63;4972383;28;19930;-86
2021/09/09 12:36:10;;;;;;;;;;;;;;;19.60;61.49;99547.28;4951481;28;19926;-86
2021/09/09 12:38:51;;;;;;;;;;;;;;;19.65;61.49;99541.47;4968404;28;20077;-86
2021/09/09 12:41:17;;;;;;;;;;;;;;;19.68;61.54;99537.97;4936066;28;20038;-86
2021/09/09 12:43:44;;;;;;;;;;;;;;;19.69;62.52;99537.59;4959228;28;20012;-87
2021/09/09 12:46:29;;;;;;;;;;;;;;;19.71;61.79;99538.03;4960283;28;19953;-86
2021/09/09 12:49:04;;;;;;;;;;;;;;;19.71;62.05;99535.25;4961752;28;19926;-86
2021/09/09 12:51:32;;;;;;;;;;;;;;;19.54;62.13;99532.94;4936347;28;19926;-86
2021/09/09 12:53:58;;;;;;;;;;;;;;;19.51;62.77;99532.88;4918317;28;20303;-87